Time;durP1;ratioP1;P1;durP2;ratioP2;P2;SDS_P1;SDS_P2;PMS_P1;PMS_P2;Temp;Humidity;BMP_temperature;BMP_pressure;BME280_temperature;BME280_humidity;BME280_pressure;Samples;Min_cycle;Max_cycle;Signal;HPM_P1;HPM_P2
2023/03/05 00:01:27;;;;;;;7.05;1.45;;;3.30;99.90;;;;;;5057414;28;20505;-41
2023/03/05 00:03:55;;;;;;;4.18;1.40;;;3.20;99.90;;;;;;5047926;28;20040;-42
2023/03/05 00:06:23;;;;;;;7.28;1.50;;;3.20;99.90;;;;;;5054469;28;20534;-42
2023/03/05 00:08:50;;;;;;;8.38;1.75;;;3.20;99.90;;;;;;5069427;28;20058;-44
2023/03/05 00:11:16;;;;;;;3.38;1.00;;;3.20;99.90;;;;;;5068435;28;20552;-42
2023/03/05 00:13:42;;;;;;;6.75;1.65;;;3.10;99.90;;;;;;5049057;28;20053;-37
2023/03/05 00:16:13;;;;;;;7.85;1.50;;;3.20;99.90;;;;;;5045994;28;20287;-46
2023/03/05 00:18:40;;;;;;;6.07;1.30;;;3.20;99.90;;;;;;5056603;28;20523;-41
2023/03/05 00:21:27;;;;;;;7.97;1.30;;;3.30;99.90;;;;;;5072012;28;20117;-43
2023/03/05 00:23:54;;;;;;;4.32;1.05;;;3.20;99.90;;;;;;5074392;28;20426;-38
2023/03/05 00:26:24;;;;;;;3.92;0.90;;;3.30;99.90;;;;;;5073919;28;20439;-41
2023/03/05 00:28:51;;;;;;;6.63;1.20;;;3.30;99.90;;;;;;5074039;28;20047;-45
2023/03/05 00:31:21;;;;;;;7.47;1.40;;;3.30;99.90;;;;;;5064868;28;20044;-39
2023/03/05 00:33:56;;;;;;;4.78;1.13;;;3.30;99.90;;;;;;5074448;28;20762;-42
2023/03/05 00:36:23;;;;;;;6.18;1.33;;;3.30;99.90;;;;;;5070751;28;20379;-36
2023/03/05 00:38:49;;;;;;;3.53;1.02;;;3.40;99.90;;;;;;5054558;28;20044;-45
2023/03/05 00:41:14;;;;;;;3.58;1.20;;;3.40;99.90;;;;;;5053722;28;20071;-45
2023/03/05 00:43:40;;;;;;;7.45;1.30;;;3.30;99.90;;;;;;5054703;28;20048;-42
2023/03/05 00:46:06;;;;;;;6.65;1.63;;;3.30;99.90;;;;;;5054130;28;20049;-42
2023/03/05 00:48:32;;;;;;;4.57;1.13;;;3.30;99.90;;;;;;5075227;28;20040;-35
2023/03/05 00:50:57;;;;;;;5.18;1.08;;;3.30;99.90;;;;;;5070799;28;20047;-40
2023/03/05 00:53:23;;;;;;;7.05;1.50;;;3.30;99.90;;;;;;5049608;28;20256;-37
2023/03/05 00:55:49;;;;;;;5.22;1.60;;;3.30;99.90;;;;;;5048519;28;20075;-46
2023/03/05 00:58:14;;;;;;;4.95;1.42;;;3.30;99.90;;;;;;5054384;28;20426;-41
2023/03/05 01:00:40;;;;;;;7.32;1.10;;;3.30;99.90;;;;;;5068898;28;20090;-42
2023/03/05 01:03:06;;;;;;;2.95;0.90;;;3.30;99.90;;;;;;5075124;28;20044;-44
2023/03/05 01:05:32;;;;;;;3.35;0.93;;;3.30;99.90;;;;;;5074474;28;20106;-35
2023/03/05 01:07:58;;;;;;;5.70;1.17;;;3.30;99.90;;;;;;5068820;28;20048;-40
2023/03/05 01:10:26;;;;;;;2.90;1.10;;;3.20;99.90;;;;;;5069964;28;20666;-41
2023/03/05 01:12:56;;;;;;;6.95;1.63;;;3.20;99.90;;;;;;5073683;28;20055;-36
2023/03/05 01:15:23;;;;;;;3.63;1.10;;;3.10;99.90;;;;;;5073716;28;20055;-39
2023/03/05 01:17:49;;;;;;;5.65;1.17;;;3.10;99.90;;;;;;5073525;28;20044;-36
2023/03/05 01:20:18;;;;;;;6.55;1.40;;;3.10;99.90;;;;;;5074081;28;20047;-41
2023/03/05 01:22:43;;;;;;;5.47;1.45;;;3.00;99.90;;;;;;5073122;28;20040;-42
2023/03/05 01:25:10;;;;;;;5.95;1.42;;;3.00;99.90;;;;;;5073483;28;20370;-38
2023/03/05 01:27:36;;;;;;;8.57;1.50;;;3.00;99.90;;;;;;5073289;28;20132;-46
2023/03/05 01:30:02;;;;;;;5.43;1.60;;;2.90;99.90;;;;;;5073368;28;20138;-41
2023/03/05 01:32:28;;;;;;;6.63;1.50;;;2.90;99.90;;;;;;5072740;28;20083;-44
2023/03/05 01:34:53;;;;;;;6.97;2.13;;;2.80;99.90;;;;;;5072861;28;20132;-42
2023/03/05 01:37:21;;;;;;;5.50;2.03;;;2.90;99.90;;;;;;5061474;28;20083;-37
2023/03/05 01:39:47;;;;;;;10.68;2.60;;;2.80;99.90;;;;;;5042598;28;20052;-44
2023/03/05 01:42:12;;;;;;;7.35;1.83;;;2.80;99.90;;;;;;5072865;28;20516;-47
2023/03/05 01:44:38;;;;;;;7.78;1.67;;;2.80;99.90;;;;;;5073567;28;20054;-43
2023/03/05 01:47:04;;;;;;;6.70;1.35;;;2.80;99.90;;;;;;5073566;28;20374;-44
2023/03/05 01:49:38;;;;;;;5.38;1.52;;;2.80;99.90;;;;;;5073861;28;20078;-38
2023/03/05 01:52:18;;;;;;;8.23;1.60;;;2.80;99.90;;;;;;5065358;28;20430;-42
2023/03/05 01:54:45;;;;;;;9.75;1.88;;;2.80;99.90;;;;;;5051012;28;20052;-39
2023/03/05 01:57:24;;;;;;;7.60;2.08;;;2.80;99.90;;;;;;5047085;28;20076;-43
2023/03/05 01:59:54;;;;;;;3.88;1.48;;;2.90;99.90;;;;;;5053195;28;20044;-40
2023/03/05 02:02:23;;;;;;;5.35;1.40;;;2.70;99.90;;;;;;5053528;28;20064;-44
2023/03/05 02:05:11;;;;;;;4.03;1.20;;;2.80;99.90;;;;;;5057011;28;20044;-37
2023/03/05 02:07:38;;;;;;;7.13;2.10;;;2.80;99.90;;;;;;5061126;28;20122;-37
2023/03/05 02:10:37;;;;;;;6.68;1.23;;;2.80;99.90;;;;;;5068711;28;20467;-44
2023/03/05 02:13:10;;;;;;;7.43;1.50;;;2.80;99.90;;;;;;5054623;28;20048;-41
2023/03/05 02:15:37;;;;;;;4.97;2.05;;;2.80;99.90;;;;;;5054044;28;20127;-43
2023/03/05 02:18:04;;;;;;;9.13;1.65;;;2.90;99.90;;;;;;5053944;28;20052;-44
2023/03/05 02:20:46;;;;;;;5.53;2.28;;;2.90;99.90;;;;;;5036514;28;20448;-46
2023/03/05 02:23:13;;;;;;;6.05;1.67;;;2.90;99.90;;;;;;5053296;28;20052;-41
2023/03/05 02:25:38;;;;;;;4.47;1.27;;;2.90;99.90;;;;;;5053275;28;20044;-47
2023/03/05 02:28:15;;;;;;;7.57;1.58;;;2.90;99.90;;;;;;5053074;28;20548;-38
2023/03/05 02:30:40;;;;;;;6.60;1.33;;;3.00;99.90;;;;;;5052807;28;20052;-43
2023/03/05 02:33:06;;;;;;;5.07;1.60;;;2.90;99.90;;;;;;5052558;28;20508;-41
2023/03/05 02:35:32;;;;;;;3.83;1.15;;;2.90;99.90;;;;;;5053398;28;20044;-36
2023/03/05 02:37:58;;;;;;;6.63;1.20;;;2.80;99.90;;;;;;5049836;28;20573;-38
2023/03/05 02:40:24;;;;;;;3.88;1.00;;;2.90;99.90;;;;;;5051972;28;20386;-40
2023/03/05 02:42:53;;;;;;;6.38;1.33;;;2.90;99.90;;;;;;5052662;28;20095;-37
2023/03/05 02:45:18;;;;;;;4.35;0.90;;;2.80;99.90;;;;;;5053112;28;20045;-43
2023/03/05 02:47:44;;;;;;;2.95;0.88;;;2.80;99.90;;;;;;5052279;28;20084;-40
2023/03/05 02:50:11;;;;;;;6.63;1.42;;;2.80;99.90;;;;;;5055263;28;20133;-45
2023/03/05 02:52:37;;;;;;;5.53;1.00;;;2.80;99.90;;;;;;5056393;28;20124;-38
2023/03/05 02:55:06;;;;;;;7.88;1.33;;;2.80;99.90;;;;;;5055981;28;20055;-41
2023/03/05 02:57:31;;;;;;;3.92;0.80;;;2.80;99.90;;;;;;5053482;28;20520;-39
2023/03/05 02:59:57;;;;;;;2.35;0.65;;;2.80;99.90;;;;;;5075054;28;20070;-38
2023/03/05 03:02:23;;;;;;;4.30;0.93;;;2.70;99.90;;;;;;5041075;28;20090;-40
2023/03/05 03:04:48;;;;;;;3.67;0.60;;;2.60;99.90;;;;;;5063897;28;20036;-38
2023/03/05 03:07:15;;;;;;;2.58;0.60;;;2.60;99.90;;;;;;5074200;28;20096;-38
2023/03/05 03:09:41;;;;;;;3.05;0.80;;;2.60;99.90;;;;;;5076083;28;20756;-45
2023/03/05 03:12:09;;;;;;;2.20;0.70;;;2.50;99.90;;;;;;5075290;28;20096;-41
2023/03/05 03:14:38;;;;;;;3.55;0.60;;;2.40;99.90;;;;;;5065941;28;20049;-49
2023/03/05 03:17:14;;;;;;;1.90;0.55;;;2.40;99.90;;;;;;5072468;28;20052;-46
2023/03/05 03:19:41;;;;;;;3.03;0.60;;;2.40;99.90;;;;;;5075889;28;20414;-40
2023/03/05 03:22:08;;;;;;;6.88;0.73;;;2.50;99.90;;;;;;5075327;28;20120;-41
2023/03/05 03:24:35;;;;;;;4.47;0.70;;;2.40;99.90;;;;;;5075688;28;20036;-40
2023/03/05 03:27:01;;;;;;;3.67;1.27;;;2.50;99.90;;;;;;5075756;28;20044;-43
2023/03/05 03:29:26;;;;;;;3.42;0.70;;;2.50;99.90;;;;;;5075292;28;20486;-44
2023/03/05 03:31:52;;;;;;;4.63;0.75;;;2.60;99.90;;;;;;5061155;28;20036;-37
2023/03/05 03:34:18;;;;;;;2.10;0.77;;;2.50;99.90;;;;;;5061793;28;20047;-41
2023/03/05 03:36:45;;;;;;;3.33;0.73;;;2.60;99.90;;;;;;5066988;28;20040;-35
2023/03/05 03:39:13;;;;;;;3.97;0.95;;;2.60;99.90;;;;;;5043926;28;20076;-40
2023/03/05 03:41:44;;;;;;;3.05;0.75;;;2.60;99.90;;;;;;5070966;28;20511;-38
2023/03/05 03:44:11;;;;;;;4.82;1.05;;;2.70;99.90;;;;;;5073860;28;20231;-43
2023/03/05 03:46:38;;;;;;;2.40;0.70;;;2.70;99.90;;;;;;5074618;28;20055;-42
2023/03/05 03:49:05;;;;;;;4.30;0.90;;;2.70;99.90;;;;;;5075289;28;20047;-51
2023/03/05 03:51:31;;;;;;;3.17;1.25;;;2.80;99.90;;;;;;5074075;28;20219;-44
2023/03/05 03:53:56;;;;;;;7.03;1.20;;;2.70;99.90;;;;;;5063903;28;20040;-40
2023/03/05 03:56:22;;;;;;;3.72;1.15;;;2.70;99.90;;;;;;5057281;28;20147;-44
2023/03/05 03:58:52;;;;;;;5.15;1.30;;;2.70;99.90;;;;;;5054883;28;20493;-42
2023/03/05 04:01:19;;;;;;;3.92;1.00;;;2.60;99.90;;;;;;5041849;28;20045;-41
2023/03/05 04:03:45;;;;;;;4.72;1.05;;;2.60;99.90;;;;;;5068913;28;20044;-43
2023/03/05 04:06:12;;;;;;;6.85;1.00;;;2.60;99.90;;;;;;5073182;28;20048;-42
2023/03/05 04:08:37;;;;;;;4.00;1.00;;;2.60;99.90;;;;;;5074697;28;20217;-48
2023/03/05 04:11:03;;;;;;;7.43;1.42;;;2.50;99.90;;;;;;5074357;28;20044;-40
2023/03/05 04:13:29;;;;;;;3.90;1.20;;;2.30;99.90;;;;;;5074567;28;20444;-36
2023/03/05 04:15:55;;;;;;;6.25;1.00;;;2.30;99.90;;;;;;5074248;28;20032;-36
2023/03/05 04:18:21;;;;;;;3.25;1.33;;;2.30;99.90;;;;;;5074883;28;20545;-40
2023/03/05 04:20:47;;;;;;;5.00;0.98;;;2.20;99.90;;;;;;5074348;28;20048;-38
2023/03/05 04:23:12;;;;;;;4.95;1.58;;;2.20;99.90;;;;;;5074563;28;20879;-43
2023/03/05 04:25:38;;;;;;;6.57;1.30;;;2.20;99.90;;;;;;5072473;28;20568;-44
2023/03/05 04:28:04;;;;;;;4.22;1.38;;;2.10;99.90;;;;;;5075190;28;20044;-39
2023/03/05 04:30:30;;;;;;;7.20;1.40;;;2.20;99.90;;;;;;5074286;28;20496;-35
2023/03/05 04:32:56;;;;;;;3.70;1.10;;;2.20;99.90;;;;;;5071672;28;20051;-39
2023/03/05 04:35:22;;;;;;;6.32;1.67;;;2.20;99.90;;;;;;5074479;28;20044;-35
2023/03/05 04:37:47;;;;;;;5.18;1.38;;;2.40;99.90;;;;;;5058789;28;20040;-41
2023/03/05 04:40:13;;;;;;;7.68;1.55;;;2.40;99.90;;;;;;5046343;28;20040;-42
2023/03/05 04:42:39;;;;;;;9.07;1.67;;;2.50;99.90;;;;;;5073695;28;20070;-40
2023/03/05 04:45:06;;;;;;;4.63;1.30;;;2.60;99.90;;;;;;5073955;28;20082;-41
2023/03/05 04:47:32;;;;;;;5.63;1.50;;;2.60;99.90;;;;;;5073700;28;20190;-37
2023/03/05 04:49:57;;;;;;;5.22;1.73;;;2.60;99.90;;;;;;5073404;28;20938;-39
2023/03/05 04:52:23;;;;;;;5.97;1.27;;;2.70;99.90;;;;;;5054827;28;20135;-39
2023/03/05 04:54:49;;;;;;;10.40;1.30;;;2.60;99.90;;;;;;5048176;28;20044;-38
2023/03/05 04:57:15;;;;;;;4.43;1.33;;;2.70;99.90;;;;;;5048111;28;20067;-38
2023/03/05 04:59:40;;;;;;;4.60;1.52;;;2.70;99.90;;;;;;5061180;28;20040;-45
2023/03/05 05:02:06;;;;;;;4.50;1.23;;;2.60;99.90;;;;;;5041025;28;20053;-42
2023/03/05 05:04:32;;;;;;;7.13;1.42;;;2.50;99.90;;;;;;5051182;28;20051;-37
2023/03/05 05:06:58;;;;;;;5.47;1.40;;;2.60;99.90;;;;;;5051484;28;20540;-41
2023/03/05 05:09:25;;;;;;;8.23;1.33;;;2.60;99.90;;;;;;5053630;28;20208;-42
2023/03/05 05:11:50;;;;;;;5.60;1.42;;;2.60;99.90;;;;;;5052864;28;20147;-39
2023/03/05 05:14:16;;;;;;;7.20;1.42;;;2.60;99.90;;;;;;5053724;28;20037;-44
2023/03/05 05:16:42;;;;;;;4.90;1.40;;;2.60;99.90;;;;;;5052748;28;20123;-39
2023/03/05 05:19:08;;;;;;;9.73;2.05;;;2.60;99.90;;;;;;5053479;28;20074;-44
2023/03/05 05:21:34;;;;;;;3.65;1.23;;;2.50;99.90;;;;;;5052788;28;20472;-42
2023/03/05 05:23:59;;;;;;;5.95;1.50;;;2.60;99.90;;;;;;5053186;28;20113;-43
2023/03/05 05:26:26;;;;;;;9.05;1.42;;;2.50;99.90;;;;;;5052860;28;20677;-39
2023/03/05 05:28:52;;;;;;;5.10;1.30;;;2.40;99.90;;;;;;5052667;28;20434;-36
2023/03/05 05:31:18;;;;;;;4.65;1.40;;;2.40;99.90;;;;;;5052872;28;20041;-39
2023/03/05 05:33:44;;;;;;;8.55;1.65;;;2.40;99.90;;;;;;5053146;28;20048;-38
2023/03/05 05:36:13;;;;;;;6.95;1.65;;;2.30;99.90;;;;;;5052445;28;20145;-41
2023/03/05 05:38:38;;;;;;;7.68;1.40;;;2.30;99.90;;;;;;5049868;28;20037;-46
2023/03/05 05:41:07;;;;;;;7.60;1.33;;;2.40;99.90;;;;;;5050469;28;20083;-45
2023/03/05 05:43:33;;;;;;;5.45;1.40;;;2.40;99.90;;;;;;5077433;28;20109;-36
2023/03/05 05:46:00;;;;;;;7.15;1.55;;;2.40;99.90;;;;;;5075138;28;20623;-39
2023/03/05 05:48:28;;;;;;;7.68;1.48;;;2.40;99.90;;;;;;5065464;28;20429;-39
2023/03/05 05:50:54;;;;;;;9.85;1.40;;;2.40;99.90;;;;;;5063339;28;20325;-36
2023/03/05 05:53:20;;;;;;;4.82;1.20;;;2.40;99.90;;;;;;5059140;28;20126;-43
2023/03/05 05:55:46;;;;;;;7.45;1.25;;;2.40;99.90;;;;;;5051772;28;20406;-42
2023/03/05 05:58:11;;;;;;;3.80;1.52;;;2.40;99.90;;;;;;5050765;28;20200;-41
2023/03/05 06:00:37;;;;;;;5.93;1.08;;;2.50;99.90;;;;;;5041862;28;20041;-35
2023/03/05 06:03:03;;;;;;;4.05;1.13;;;2.40;99.90;;;;;;5054774;28;20543;-41
2023/03/05 06:05:29;;;;;;;4.10;1.30;;;2.40;99.90;;;;;;5070191;28;20047;-43
2023/03/05 06:07:54;;;;;;;4.68;1.00;;;2.30;99.90;;;;;;5078312;28;20044;-35
2023/03/05 06:10:20;;;;;;;4.13;1.17;;;2.30;99.90;;;;;;5076982;28;20048;-38
2023/03/05 06:12:46;;;;;;;6.13;1.00;;;2.30;99.90;;;;;;5077398;28;20040;-43
2023/03/05 06:15:12;;;;;;;5.60;1.52;;;2.30;99.90;;;;;;5076943;28;20047;-37
2023/03/05 06:17:37;;;;;;;7.95;1.40;;;2.20;99.90;;;;;;5065503;28;20055;-37
2023/03/05 06:20:04;;;;;;;5.03;1.00;;;2.20;99.90;;;;;;5077380;28;20044;-40
2023/03/05 06:22:29;;;;;;;5.82;1.10;;;2.20;99.90;;;;;;5077569;28;20151;-37
2023/03/05 06:24:55;;;;;;;7.47;1.40;;;2.20;99.90;;;;;;5077157;28;20442;-37
2023/03/05 06:27:21;;;;;;;5.22;1.40;;;2.10;99.90;;;;;;5068498;28;20051;-43
2023/03/05 06:29:46;;;;;;;6.05;1.50;;;2.10;99.90;;;;;;5071196;28;20044;-38
2023/03/05 06:32:12;;;;;;;5.15;1.25;;;2.10;99.90;;;;;;5075709;28;20113;-39
2023/03/05 06:34:38;;;;;;;2.08;1.00;;;2.00;99.90;;;;;;5076560;28;20075;-41
2023/03/05 06:37:03;;;;;;;5.72;1.35;;;2.10;99.90;;;;;;5066772;28;20423;-42
2023/03/05 06:39:30;;;;;;;2.38;1.10;;;2.00;99.90;;;;;;5043215;28;20045;-44
2023/03/05 06:41:56;;;;;;;5.45;1.17;;;2.00;99.90;;;;;;5074612;28;20052;-42
2023/03/05 06:44:22;;;;;;;6.30;1.45;;;2.00;99.90;;;;;;5075998;28;20193;-40
2023/03/05 06:46:47;;;;;;;9.75;1.58;;;2.00;99.90;;;;;;5074883;28;20490;-43
2023/03/05 06:49:13;;;;;;;5.75;1.15;;;2.10;99.90;;;;;;5054592;28;20302;-37
2023/03/05 06:51:39;;;;;;;5.55;1.38;;;2.00;99.90;;;;;;5046863;28;20053;-41
2023/03/05 06:54:12;;;;;;;5.20;1.40;;;2.10;99.90;;;;;;5044396;28;20078;-41
2023/03/05 06:56:40;;;;;;;6.40;1.38;;;2.10;99.90;;;;;;5046336;28;20481;-43
2023/03/05 06:59:06;;;;;;;4.38;1.38;;;2.20;99.90;;;;;;5039826;28;20150;-44
2023/03/05 07:01:32;;;;;;;7.18;1.30;;;2.20;99.90;;;;;;5041691;28;20084;-37
2023/03/05 07:03:59;;;;;;;5.70;1.70;;;2.20;99.90;;;;;;5048969;28;20572;-39
2023/03/05 07:06:26;;;;;;;4.30;1.30;;;2.30;99.90;;;;;;5042868;28;20049;-44
2023/03/05 07:08:55;;;;;;;8.93;1.42;;;2.40;99.90;;;;;;5047515;28;20053;-35
2023/03/05 07:11:22;;;;;;;11.38;1.30;;;2.50;99.90;;;;;;5053077;28;20224;-41
2023/03/05 07:13:48;;;;;;;9.30;1.95;;;2.60;99.90;;;;;;5051548;28;20041;-41
2023/03/05 07:16:17;;;;;;;6.65;1.35;;;2.50;99.90;;;;;;5044419;28;20076;-37
2023/03/05 07:18:43;;;;;;;4.60;1.20;;;2.60;99.90;;;;;;5048360;28;20045;-40
2023/03/05 07:21:13;;;;;;;7.40;1.55;;;2.70;99.90;;;;;;5043361;28;20048;-42
2023/03/05 07:23:39;;;;;;;3.08;1.20;;;2.80;99.90;;;;;;5041776;28;20115;-36
2023/03/05 07:26:05;;;;;;;6.43;1.20;;;2.80;99.90;;;;;;5045301;28;20048;-44
2023/03/05 07:28:32;;;;;;;7.35;1.38;;;2.90;99.90;;;;;;5046787;28;20044;-48
2023/03/05 07:31:03;;;;;;;10.82;3.28;;;2.90;99.90;;;;;;5041360;28;20390;-46
2023/03/05 07:33:29;;;;;;;8.27;2.00;;;3.00;99.90;;;;;;5077961;28;20067;-45
2023/03/05 07:35:55;;;;;;;8.45;1.52;;;3.00;99.90;;;;;;5046486;28;20438;-43
2023/03/05 07:38:21;;;;;;;6.50;1.70;;;3.10;99.90;;;;;;5073998;28;20506;-45
2023/03/05 07:40:47;;;;;;;8.35;1.88;;;3.10;99.90;;;;;;5050486;28;20037;-41
2023/03/05 07:43:13;;;;;;;5.78;1.23;;;3.10;99.90;;;;;;5049823;28;20399;-40
2023/03/05 07:45:40;;;;;;;5.72;1.50;;;3.30;99.90;;;;;;5040317;28;20037;-38
2023/03/05 07:48:07;;;;;;;5.95;1.95;;;3.40;99.90;;;;;;5049581;28;20044;-45
2023/03/05 07:50:32;;;;;;;7.80;2.47;;;3.60;99.90;;;;;;5046862;28;20037;-35
2023/03/05 07:52:58;;;;;;;6.22;2.28;;;3.70;99.90;;;;;;5049322;28;20044;-41
2023/03/05 07:55:24;;;;;;;4.75;1.70;;;3.90;99.90;;;;;;5040043;28;20114;-38
2023/03/05 07:57:50;;;;;;;6.03;1.40;;;4.00;99.90;;;;;;5073376;28;20506;-36
2023/03/05 08:00:16;;;;;;;6.80;1.33;;;4.10;99.90;;;;;;5053832;28;20459;-44
2023/03/05 08:02:41;;;;;;;6.00;1.40;;;4.20;99.90;;;;;;5054088;28;20044;-39
2023/03/05 08:05:07;;;;;;;6.18;1.42;;;4.30;99.90;;;;;;5041627;28;20129;-39
2023/03/05 08:07:33;;;;;;;11.68;1.45;;;4.30;99.90;;;;;;5046959;28;20040;-42
2023/03/05 08:09:59;;;;;;;6.38;1.25;;;4.50;99.90;;;;;;5045477;28;20032;-41
2023/03/05 08:12:24;;;;;;;32.50;18.98;;;4.60;99.90;;;;;;5055016;28;20399;-36
2023/03/05 08:14:50;;;;;;;11.90;5.18;;;4.70;99.90;;;;;;5041208;28;20390;-42
2023/03/05 08:17:16;;;;;;;6.78;2.20;;;4.90;99.90;;;;;;5040198;28;20123;-46
2023/03/05 08:19:41;;;;;;;7.63;3.95;;;4.90;99.90;;;;;;5055232;28;20402;-40
2023/03/05 08:22:07;;;;;;;5.53;3.30;;;5.10;99.90;;;;;;5052005;28;20040;-40
2023/03/05 08:24:33;;;;;;;5.78;1.60;;;5.10;99.90;;;;;;5055459;28;20040;-40
2023/03/05 08:26:59;;;;;;;10.05;5.75;;;5.30;99.90;;;;;;5053592;28;20048;-38
2023/03/05 08:29:25;;;;;;;13.60;8.43;;;5.40;99.90;;;;;;5055686;28;20048;-39
2023/03/05 08:31:52;;;;;;;7.63;3.67;;;5.60;99.90;;;;;;5054253;28;20044;-44
2023/03/05 08:34:21;;;;;;;7.22;2.60;;;5.70;99.90;;;;;;5068006;28;20110;-41
2023/03/05 08:36:47;;;;;;;8.93;3.60;;;5.80;99.90;;;;;;5067318;28;20080;-39
2023/03/05 08:39:14;;;;;;;4.00;2.05;;;5.80;99.90;;;;;;5042525;28;20394;-40
2023/03/05 08:41:39;;;;;;;9.65;1.65;;;5.90;99.90;;;;;;5065229;28;20094;-44
2023/03/05 08:44:05;;;;;;;7.35;2.30;;;6.00;99.90;;;;;;5066511;28;20048;-47
2023/03/05 08:46:31;;;;;;;9.50;4.13;;;6.10;99.90;;;;;;5074092;28;20047;-45
2023/03/05 08:48:57;;;;;;;11.93;1.83;;;6.10;99.90;;;;;;5074897;28;20047;-37
2023/03/05 08:51:24;;;;;;;7.60;2.30;;;6.10;99.90;;;;;;5060226;28;20039;-43
2023/03/05 08:53:51;;;;;;;6.85;2.00;;;6.20;99.90;;;;;;5051308;28;20067;-40
2023/03/05 08:56:17;;;;;;;6.25;1.40;;;6.30;99.90;;;;;;5048503;28;20067;-44
2023/03/05 08:58:45;;;;;;;8.10;1.73;;;6.30;99.90;;;;;;5066572;28;20040;-38
2023/03/05 09:01:11;;;;;;;7.47;1.60;;;6.40;99.90;;;;;;5073700;28;20072;-43
2023/03/05 09:03:37;;;;;;;8.93;1.38;;;6.30;99.90;;;;;;5063157;28;20040;-44
2023/03/05 09:06:05;;;;;;;12.52;1.70;;;6.20;99.90;;;;;;5053612;28;20048;-39
2023/03/05 09:08:32;;;;;;;8.40;1.88;;;6.20;99.90;;;;;;5040903;28;20383;-44
2023/03/05 09:11:00;;;;;;;13.07;7.75;;;6.30;99.90;;;;;;5040440;28;20052;-41
2023/03/05 09:13:25;;;;;;;16.10;6.20;;;6.30;99.90;;;;;;5053474;28;20041;-42
2023/03/05 09:16:01;;;;;;;8.60;4.07;;;6.30;99.90;;;;;;5073579;28;20040;-45
2023/03/05 09:18:27;;;;;;;12.40;10.88;;;6.30;99.90;;;;;;5074718;28;20036;-45
2023/03/05 09:20:53;;;;;;;6.90;3.25;;;6.30;99.90;;;;;;5073462;28;20079;-36
2023/03/05 09:23:19;;;;;;;16.67;13.40;;;6.40;99.90;;;;;;5074492;28;20048;-38
2023/03/05 09:25:45;;;;;;;8.75;4.45;;;6.40;99.90;;;;;;5063930;28;20044;-44
2023/03/05 09:28:11;;;;;;;8.95;3.72;;;6.50;99.90;;;;;;5058170;28;20036;-41
2023/03/05 09:30:37;;;;;;;12.05;3.45;;;6.50;99.90;;;;;;5073691;28;20136;-39
2023/03/05 09:33:03;;;;;;;8.55;1.80;;;6.70;99.90;;;;;;5072133;28;20044;-38
2023/03/05 09:35:29;;;;;;;12.70;3.67;;;6.70;99.90;;;;;;5053333;28;20052;-40
2023/03/05 09:37:55;;;;;;;8.73;2.15;;;6.80;99.90;;;;;;5041516;28;20055;-36
2023/03/05 09:40:21;;;;;;;8.45;2.00;;;6.80;99.90;;;;;;5041128;28;20037;-37
2023/03/05 09:43:14;;;;;;;7.40;1.65;;;6.90;99.90;;;;;;5054105;28;20051;-41
2023/03/05 09:46:13;;;;;;;5.60;1.48;;;7.00;99.90;;;;;;5053012;28;20476;-39
2023/03/05 09:48:51;;;;;;;8.45;2.38;;;7.10;99.90;;;;;;5053394;28;20056;-43
2023/03/05 09:51:33;;;;;;;5.47;3.17;;;7.20;99.90;;;;;;5053226;28;20611;-41
2023/03/05 09:54:12;;;;;;;9.70;1.63;;;7.40;99.90;;;;;;5048521;28;20048;-42
2023/03/05 09:56:46;;;;;;;4.53;1.48;;;7.50;99.90;;;;;;5047998;28;20470;-44
2023/03/05 09:59:18;;;;;;;5.03;1.60;;;7.30;99.90;;;;;;5053210;28;20041;-42
2023/03/05 10:01:44;;;;;;;7.05;0.90;;;7.00;99.90;;;;;;5063860;28;20101;-38
2023/03/05 10:04:26;;;;;;;4.85;1.90;;;6.80;99.90;;;;;;5073047;28;20040;-39
2023/03/05 10:06:57;;;;;;;8.52;6.00;;;6.60;99.90;;;;;;5071129;28;20044;-48
2023/03/05 10:09:43;;;;;;;4.72;4.20;;;6.30;99.90;;;;;;5073450;28;20100;-40
2023/03/05 10:12:34;;;;;;;5.55;1.95;;;6.40;99.90;;;;;;5071908;28;20059;-44
2023/03/05 10:15:01;;;;;;;7.60;1.85;;;6.40;99.90;;;;;;5072813;28;20056;-43
2023/03/05 10:17:58;;;;;;;6.55;1.52;;;6.50;99.90;;;;;;5073064;28;20048;-45
2023/03/05 10:20:52;;;;;;;6.28;1.48;;;6.70;99.90;;;;;;5059429;28;20097;-36
2023/03/05 10:23:43;;;;;;;4.97;1.40;;;6.90;99.90;;;;;;5073939;28;20044;-45
2023/03/05 10:26:26;;;;;;;9.13;1.55;;;7.00;99.90;;;;;;5068019;28;20040;-39
2023/03/05 10:29:17;;;;;;;9.40;1.80;;;7.20;99.90;;;;;;5044551;28;20087;-46
2023/03/05 10:32:05;;;;;;;14.02;1.70;;;7.30;99.90;;;;;;5060049;28;20461;-42
2023/03/05 10:35:02;;;;;;;5.15;1.45;;;7.50;99.90;;;;;;5076578;28;20048;-40
2023/03/05 10:37:36;;;;;;;6.35;1.55;;;7.60;99.90;;;;;;5053173;28;20604;-43
2023/03/05 10:40:11;;;;;;;4.95;1.63;;;7.40;99.90;;;;;;5042300;28;20063;-42
2023/03/05 10:43:00;;;;;;;6.07;1.30;;;7.20;99.90;;;;;;5052613;28;20545;-41
2023/03/05 10:45:26;;;;;;;6.85;1.58;;;7.00;99.90;;;;;;5041784;28;20581;-46
2023/03/05 10:47:58;;;;;;;8.18;2.03;;;6.90;99.90;;;;;;5041580;28;20053;-42
2023/03/05 10:50:37;;;;;;;18.85;9.43;;;6.80;99.90;;;;;;5041466;28;20581;-37
2023/03/05 10:53:14;;;;;;;14.98;10.73;;;6.80;99.90;;;;;;5053624;28;20052;-40
2023/03/05 10:55:40;;;;;;;10.38;4.00;;;6.80;99.90;;;;;;5054280;28;20040;-40
2023/03/05 10:58:14;;;;;;;6.75;1.67;;;6.90;99.90;;;;;;5036219;28;20197;-41
2023/03/05 11:01:03;;;;;;;5.43;1.33;;;7.00;99.90;;;;;;5033722;28;20372;-36
2023/03/05 11:03:53;;;;;;;19.10;15.00;;;7.10;99.90;;;;;;5052870;28;20084;-40
2023/03/05 11:06:32;;;;;;;5.88;2.33;;;7.30;99.90;;;;;;5032263;28;20385;-41
2023/03/05 11:09:20;;;;;;;7.43;2.85;;;7.40;99.90;;;;;;5044401;28;20159;-49
2023/03/05 11:12:13;;;;;;;7.43;1.50;;;7.50;99.90;;;;;;5046771;28;20040;-43
2023/03/05 11:14:45;;;;;;;9.60;1.73;;;7.50;99.90;;;;;;5043298;28;20390;-46
2023/03/05 11:17:31;;;;;;;6.07;1.50;;;7.50;99.90;;;;;;5054740;28;20078;-45
2023/03/05 11:20:26;;;;;;;7.72;1.85;;;7.60;99.90;;;;;;5053519;28;20051;-44
2023/03/05 11:23:18;;;;;;;8.85;4.85;;;7.70;99.90;;;;;;5075931;28;20526;-43
2023/03/05 11:26:11;;;;;;;7.25;1.50;;;7.80;99.90;;;;;;5075228;28;20048;-36
2023/03/05 11:28:55;;;;;;;5.63;1.70;;;7.90;99.90;;;;;;5075505;28;20109;-42
2023/03/05 11:31:28;;;;;;;7.80;3.10;;;8.10;99.90;;;;;;5107611;27;20385;-44
2023/03/05 11:33:59;;;;;;;5.38;2.15;;;8.10;99.90;;;;;;5075644;28;20039;-44
2023/03/05 11:36:27;;;;;;;14.45;2.05;;;7.90;99.90;;;;;;5073139;28;20049;-41
2023/03/05 11:38:59;;;;;;;6.15;2.17;;;7.70;99.90;;;;;;5057530;28;20528;-39
2023/03/05 11:41:46;;;;;;;6.38;1.33;;;7.60;99.90;;;;;;5068087;28;20036;-41
2023/03/05 11:44:19;;;;;;;2.47;0.80;;;7.60;99.90;;;;;;5075871;28;20502;-36
2023/03/05 11:47:10;;;;;;;5.30;1.55;;;7.50;99.90;;;;;;5075029;28;20054;-41
2023/03/05 11:49:42;;;;;;;6.70;2.28;;;7.40;99.90;;;;;;5074296;28;20146;-46
2023/03/05 11:52:20;;;;;;;9.35;2.05;;;7.30;99.90;;;;;;5068475;28;20476;-44
2023/03/05 11:54:57;;;;;;;5.93;1.63;;;7.30;99.90;;;;;;5052697;28;20494;-40
2023/03/05 11:57:24;;;;;;;5.97;1.85;;;7.40;99.90;;;;;;5049482;28;20082;-46
2023/03/05 11:59:52;;;;;;;5.78;1.30;;;7.50;99.90;;;;;;5063119;28;20066;-41
2023/03/05 12:02:22;;;;;;;4.50;1.58;;;7.50;99.90;;;;;;5073106;28;20036;-47
2023/03/05 12:04:49;;;;;;;6.68;2.83;;;7.70;99.90;;;;;;5074153;28;20051;-37
2023/03/05 12:07:34;;;;;;;9.18;2.55;;;7.90;99.90;;;;;;5074195;28;20071;-41
2023/03/05 12:10:01;;;;;;;9.50;2.00;;;8.10;99.90;;;;;;5074338;28;20044;-45
2023/03/05 12:12:43;;;;;;;5.63;1.67;;;8.20;99.90;;;;;;5074672;28;20043;-42
2023/03/05 12:15:14;;;;;;;7.30;1.73;;;8.30;99.90;;;;;;5073533;28;20509;-47
2023/03/05 12:18:10;;;;;;;4.78;1.52;;;8.20;99.90;;;;;;5072702;28;20062;-44
2023/03/05 12:20:35;;;;;;;4.78;1.40;;;8.20;99.90;;;;;;5073615;28;20036;-42
2023/03/05 12:23:01;;;;;;;7.53;1.65;;;8.20;99.90;;;;;;5075213;28;20059;-46
2023/03/05 12:25:43;;;;;;;6.15;2.42;;;8.20;99.90;;;;;;5074056;28;20044;-43
2023/03/05 12:28:34;;;;;;;69.40;42.47;;;8.20;99.90;;;;;;5074283;28;20474;-45
2023/03/05 12:31:15;;;;;;;105.72;70.95;;;8.40;99.90;;;;;;5068022;28;20059;-42
2023/03/05 12:33:42;;;;;;;11.98;7.68;;;8.50;99.90;;;;;;5073374;28;20875;-43
2023/03/05 12:36:20;;;;;;;5.03;2.85;;;8.60;99.90;;;;;;5068695;28;20098;-42
2023/03/05 12:38:50;;;;;;;7.15;3.40;;;8.70;99.90;;;;;;5031266;28;20448;-46
2023/03/05 12:41:22;;;;;;;8.45;7.55;;;8.70;99.90;;;;;;5061249;28;20083;-46
2023/03/05 12:44:06;;;;;;;8.63;5.97;;;8.60;99.90;;;;;;5073783;28;20147;-36
2023/03/05 12:46:34;;;;;;;8.77;5.47;;;8.50;99.90;;;;;;5072585;28;20055;-44
2023/03/05 12:49:21;;;;;;;6.90;2.33;;;8.50;99.90;;;;;;5074308;28;20060;-47
2023/03/05 12:51:52;;;;;;;4.60;1.45;;;8.50;99.90;;;;;;5071756;28;20054;-39
2023/03/05 12:54:27;;;;;;;7.07;3.78;;;8.40;99.90;;;;;;5064056;28;20040;-37
2023/03/05 12:56:58;;;;;;;8.55;5.35;;;8.50;99.90;;;;;;5050229;28;20190;-37
2023/03/05 12:59:30;;;;;;;14.85;11.27;;;8.40;99.90;;;;;;5052042;28;20363;-42
2023/03/05 13:02:03;;;;;;;10.40;2.72;;;8.20;99.90;;;;;;5065039;28;20086;-46
2023/03/05 13:04:30;;;;;;;;;;;8.10;99.90;;;;;;5073161;28;20048;-41
2023/03/05 13:07:13;;;;;;;8.57;2.50;;;8.00;99.90;;;;;;5073064;28;20480;-43
2023/03/05 13:09:39;;;;;;;6.18;2.47;;;7.80;99.90;;;;;;5071465;28;20146;-46